createdAt,value
2022-10-23T00:01:32.320Z,11.18
2022-10-23T00:04:02.577Z,12.93
2022-10-23T00:06:34.862Z,13.73
2022-10-23T00:09:04.800Z,13.45
2022-10-23T00:11:33.901Z,12.70
2022-10-23T00:14:05.274Z,12.27
2022-10-23T00:16:34.576Z,13.38
2022-10-23T00:19:03.300Z,11.43
2022-10-23T00:21:33.333Z,16.73
2022-10-23T00:24:02.032Z,15.07
2022-10-23T00:26:30.809Z,13.43
2022-10-23T00:28:59.396Z,15.02
2022-10-23T00:31:28.207Z,12.57
2022-10-23T00:33:56.793Z,13.40
2022-10-23T00:36:25.406Z,14.90
2022-10-23T00:38:56.393Z,14.52
2022-10-23T00:44:05.525Z,20.02
2022-10-23T00:46:34.818Z,12.45
2022-10-23T00:49:04.083Z,15.05
2022-10-23T00:51:38.212Z,11.82
2022-10-23T00:54:25.277Z,11.48
2022-10-23T00:56:58.350Z,11.00
2022-10-23T00:59:27.919Z,17.10
2022-10-23T01:01:56.829Z,11.40
2022-10-23T01:04:26.217Z,10.77
2022-10-23T01:07:03.889Z,12.07
2022-10-23T01:09:40.623Z,11.48
2022-10-23T01:12:16.757Z,13.05
2022-10-23T01:14:58.561Z,11.32
2022-10-23T01:17:37.608Z,10.27
2022-10-23T01:20:21.268Z,11.98
2022-10-23T01:23:07.001Z,13.82
2022-10-23T01:25:53.921Z,14.43
2022-10-23T01:28:30.319Z,11.00
2022-10-23T01:31:01.432Z,11.68
2022-10-23T01:33:41.159Z,10.48
2022-10-23T01:36:15.004Z,9.43
2022-10-23T01:38:50.872Z,10.63
2022-10-23T01:41:30.403Z,13.35
2022-10-23T01:44:05.808Z,13.23
2022-10-23T01:46:37.813Z,11.25
2022-10-23T01:49:13.096Z,10.50
2022-10-23T01:51:46.884Z,9.93
2022-10-23T01:54:18.181Z,10.45
2022-10-23T01:56:49.757Z,10.35
2022-10-23T01:59:25.882Z,11.50
2022-10-23T02:01:58.293Z,10.48
2022-10-23T02:04:31.113Z,11.63
2022-10-23T02:06:59.986Z,9.85
2022-10-23T02:09:28.851Z,9.55
2022-10-23T02:12:02.871Z,9.85
2022-10-23T02:14:42.069Z,11.13
2022-10-23T02:17:17.197Z,8.93
2022-10-23T02:19:51.386Z,8.32
2022-10-23T02:22:25.059Z,7.90
2022-10-23T02:24:58.380Z,8.85
2022-10-23T02:27:32.663Z,12.43
2022-10-23T02:30:06.529Z,12.15
2022-10-23T02:32:39.057Z,11.35
2022-10-23T02:35:08.879Z,7.75
2022-10-23T02:37:37.594Z,8.38
2022-10-23T02:40:10.481Z,9.27
2022-10-23T02:42:52.419Z,9.93
2022-10-23T02:45:31.227Z,9.15
2022-10-23T02:48:05.773Z,9.63
2022-10-23T02:50:40.905Z,9.75
2022-10-23T02:53:17.581Z,9.57
2022-10-23T02:55:56.165Z,8.95
2022-10-23T02:58:30.589Z,11.55
2022-10-23T03:01:06.227Z,8.10
2022-10-23T03:03:39.384Z,8.23
2022-10-23T03:06:09.207Z,11.07
2022-10-23T03:08:45.559Z,11.70
2022-10-23T03:11:14.483Z,8.85
2022-10-23T03:13:43.381Z,9.75
2022-10-23T03:16:14.168Z,8.80
2022-10-23T03:18:43.090Z,10.32
2022-10-23T03:21:11.730Z,9.05
2022-10-23T03:23:40.711Z,7.35
2022-10-23T03:26:10.229Z,7.07
2022-10-23T03:28:44.021Z,7.82
2022-10-23T03:31:14.568Z,8.70
2022-10-23T03:33:44.041Z,8.75
2022-10-23T03:36:14.453Z,13.00
2022-10-23T03:38:45.466Z,8.55
2022-10-23T03:41:14.449Z,7.57
2022-10-23T03:43:43.106Z,9.43
2022-10-23T03:46:13.806Z,10.93
2022-10-23T03:48:42.720Z,10.60
2022-10-23T03:51:11.740Z,8.43
2022-10-23T03:53:42.801Z,8.25
2022-10-23T03:56:11.641Z,8.60
2022-10-23T03:58:41.387Z,12.32
2022-10-23T04:01:10.561Z,14.82
2022-10-23T04:03:40.973Z,20.42
2022-10-23T04:06:09.935Z,18.15
2022-10-23T04:08:39.492Z,27.20
2022-10-23T04:11:14.815Z,20.48
2022-10-23T04:13:48.004Z,24.00
2022-10-23T04:16:17.124Z,24.60
2022-10-23T04:18:48.273Z,23.90
2022-10-23T04:21:17.559Z,24.42
2022-10-23T04:23:46.471Z,24.33
2022-10-23T04:26:17.919Z,23.35
2022-10-23T04:28:46.661Z,21.35
2022-10-23T04:31:15.523Z,21.05
2022-10-23T04:33:45.257Z,24.88
2022-10-23T04:36:33.024Z,25.48
2022-10-23T04:39:10.225Z,27.52
2022-10-23T04:41:39.294Z,28.88
2022-10-23T04:44:08.489Z,26.85
2022-10-23T04:46:40.897Z,29.00
2022-10-23T04:49:10.824Z,27.27
2022-10-23T04:51:59.544Z,22.67
2022-10-23T04:54:47.153Z,29.17
2022-10-23T04:57:43.290Z,30.88
2022-10-23T05:00:15.900Z,27.75
2022-10-23T05:02:53.392Z,27.20
2022-10-23T05:05:23.092Z,31.33
2022-10-23T05:08:03.120Z,31.08
2022-10-23T05:10:57.885Z,27.48
2022-10-23T05:13:27.371Z,32.35
2022-10-23T05:15:56.228Z,28.35
2022-10-23T05:18:32.080Z,28.52
2022-10-23T05:21:03.951Z,29.98
2022-10-23T05:23:39.259Z,34.40
2022-10-23T05:26:08.374Z,34.50
2022-10-23T05:28:38.166Z,32.08
2022-10-23T05:31:07.929Z,36.40
2022-10-23T05:33:42.411Z,36.20
2022-10-23T05:36:14.408Z,31.88
2022-10-23T05:38:47.577Z,31.05
2022-10-23T05:41:19.013Z,34.83
2022-10-23T05:43:48.325Z,29.23
2022-10-23T05:46:35.475Z,30.88
2022-10-23T05:49:22.866Z,28.95
2022-10-23T05:52:12.818Z,30.25
2022-10-23T05:55:00.383Z,31.95
2022-10-23T05:57:52.032Z,27.10
2022-10-23T06:00:30.866Z,30.38
2022-10-23T06:03:18.926Z,25.10
2022-10-23T06:05:51.725Z,32.13
2022-10-23T06:08:24.558Z,30.77
2022-10-23T06:10:56.124Z,29.95
2022-10-23T06:15:53.184Z,31.73
2022-10-23T06:20:57.517Z,30.17
2022-10-23T06:23:28.343Z,35.97
2022-10-23T06:26:21.404Z,31.30
2022-10-23T06:29:00.721Z,38.78
2022-10-23T06:31:29.809Z,41.50
2022-10-23T06:34:01.053Z,42.78
2022-10-23T06:36:31.732Z,41.60
2022-10-23T06:39:13.569Z,44.30
2022-10-23T06:42:02.651Z,47.30
2022-10-23T06:44:57.931Z,40.88
2022-10-23T06:47:51.730Z,45.10
2022-10-23T06:50:35.324Z,51.63
2022-10-23T06:53:08.730Z,52.67
2022-10-23T06:55:41.326Z,55.58
2022-10-23T06:58:12.688Z,47.55
2022-10-23T07:00:57.362Z,44.13
2022-10-23T07:03:26.243Z,47.40
2022-10-23T07:05:55.004Z,53.80
2022-10-23T07:08:24.113Z,59.40
2022-10-23T07:10:55.144Z,69.13
2022-10-23T07:13:25.937Z,56.95
2022-10-23T07:16:23.762Z,58.00
2022-10-23T07:18:59.632Z,55.05
2022-10-23T07:21:34.894Z,59.65
2022-10-23T07:29:27.748Z,65.90
2022-10-23T07:31:57.703Z,56.33
2022-10-23T07:34:52.628Z,54.75
2022-10-23T07:37:26.993Z,59.95
2022-10-23T07:39:55.772Z,63.33
2022-10-23T07:42:25.945Z,56.95
2022-10-23T07:44:56.389Z,64.18
2022-10-23T07:47:25.147Z,59.20
2022-10-23T07:49:54.539Z,61.92
2022-10-23T07:52:23.281Z,55.63
2022-10-23T07:55:11.980Z,53.78
2022-10-23T07:57:47.407Z,60.90
2022-10-23T08:00:34.017Z,59.80
2022-10-23T08:03:13.948Z,64.57
2022-10-23T08:05:43.182Z,64.22
2022-10-23T08:08:12.070Z,59.75
2022-10-23T08:10:43.198Z,60.28
2022-10-23T08:13:16.239Z,60.38
2022-10-23T08:16:05.123Z,65.88
2022-10-23T08:18:56.393Z,59.58
2022-10-23T08:21:25.708Z,61.20
2022-10-23T08:23:57.035Z,69.93
2022-10-23T08:26:27.237Z,65.90
2022-10-23T08:28:56.559Z,66.43
2022-10-23T08:31:27.407Z,72.60
2022-10-23T08:34:15.861Z,74.72
2022-10-23T08:36:47.047Z,84.63
2022-10-23T08:39:16.203Z,83.00
2022-10-23T08:41:59.130Z,73.40
2022-10-23T08:44:33.663Z,72.72
2022-10-23T08:47:09.319Z,72.38
2022-10-23T08:49:53.808Z,79.22
2022-10-23T08:52:27.487Z,81.68
2022-10-23T08:55:08.298Z,90.22
2022-10-23T08:57:42.744Z,77.07
2022-10-23T09:00:16.563Z,83.38
2022-10-23T09:02:49.098Z,159.85
2022-10-23T09:05:20.919Z,67.90
2022-10-23T09:08:02.763Z,60.20
2022-10-23T09:10:51.523Z,64.50
2022-10-23T09:13:37.402Z,105.30
2022-10-23T09:16:16.265Z,69.43
2022-10-23T09:18:49.184Z,74.22
2022-10-23T09:21:18.785Z,86.50
2022-10-23T09:23:47.492Z,81.32
2022-10-23T09:26:18.161Z,87.68
2022-10-23T09:28:50.103Z,102.05
2022-10-23T09:31:20.310Z,101.05
2022-10-23T09:34:06.487Z,102.68
2022-10-23T09:36:37.287Z,123.18
2022-10-23T09:39:05.971Z,112.15
2022-10-23T09:41:38.121Z,115.40
2022-10-23T09:44:20.323Z,122.28
2022-10-23T09:49:28.606Z,130.82
2022-10-23T09:52:06.392Z,133.70
2022-10-23T09:54:36.930Z,117.18
2022-10-23T09:57:21.147Z,126.20
2022-10-23T09:59:53.383Z,127.30
2022-10-23T10:02:29.151Z,127.25
2022-10-23T10:05:26.464Z,140.63
2022-10-23T10:08:00.843Z,134.63
2022-10-23T10:10:38.129Z,140.77
2022-10-23T10:13:23.022Z,127.90
2022-10-23T10:15:57.027Z,130.43
2022-10-23T10:18:33.785Z,130.18
2022-10-23T10:21:19.598Z,132.15
2022-10-23T10:23:56.144Z,137.40
2022-10-23T10:26:36.526Z,127.97
2022-10-23T10:29:15.703Z,147.13
2022-10-23T10:31:57.982Z,134.23
2022-10-23T10:34:34.803Z,138.15
2022-10-23T10:37:15.101Z,135.38
2022-10-23T10:39:51.341Z,137.60
2022-10-23T10:42:42.904Z,147.25
2022-10-23T10:45:21.604Z,136.43
2022-10-23T10:48:03.603Z,135.60
2022-10-23T10:50:49.957Z,133.48
2022-10-23T10:53:35.352Z,146.48
2022-10-23T10:58:41.716Z,127.13
2022-10-23T11:01:19.369Z,125.85
2022-10-23T11:03:53.532Z,134.93
2022-10-23T11:06:26.079Z,119.32
2022-10-23T11:08:58.061Z,137.90
2022-10-23T11:11:40.829Z,130.38
2022-10-23T11:14:20.701Z,137.27
2022-10-23T11:16:52.713Z,114.85
2022-10-23T11:19:26.808Z,115.75
2022-10-23T11:21:59.883Z,127.43
2022-10-23T11:24:58.259Z,120.75
2022-10-23T11:27:44.469Z,124.45
2022-10-23T11:30:24.302Z,128.20
2022-10-23T11:33:36.131Z,132.82
2022-10-23T11:36:17.233Z,133.48
2022-10-23T11:38:49.247Z,125.30
2022-10-23T11:44:04.805Z,117.25
2022-10-23T11:46:36.558Z,130.30
2022-10-23T11:51:37.741Z,113.63
2022-10-23T11:57:10.130Z,135.00
2022-10-23T11:59:54.197Z,130.38
2022-10-23T12:02:33.067Z,132.02
2022-10-23T12:05:05.959Z,113.82
2022-10-23T12:07:37.467Z,128.18
2022-10-23T12:10:08.842Z,115.75
2022-10-23T12:12:41.194Z,133.80
2022-10-23T12:15:20.962Z,128.50
2022-10-23T12:17:51.747Z,133.65
2022-10-23T12:20:46.502Z,124.00
2022-10-23T12:23:37.032Z,107.35
2022-10-23T12:26:21.212Z,108.15
2022-10-23T12:29:03.825Z,107.40
2022-10-23T12:31:47.009Z,85.82
2022-10-23T12:34:31.607Z,104.25
2022-10-23T12:37:24.662Z,107.85
2022-10-23T12:39:56.006Z,103.90
2022-10-23T12:42:26.794Z,102.38
2022-10-23T12:45:07.637Z,96.88
2022-10-23T12:50:19.882Z,98.90
2022-10-23T12:52:56.581Z,100.50
2022-10-23T12:55:27.501Z,90.45
2022-10-23T12:57:57.692Z,98.35
2022-10-23T13:00:27.833Z,93.45
2022-10-23T13:03:00.543Z,98.85
2022-10-23T13:05:30.740Z,95.20
2022-10-23T13:08:01.634Z,86.13
2022-10-23T13:10:43.902Z,80.00
2022-10-23T13:13:15.618Z,80.13
2022-10-23T13:15:46.906Z,81.50
2022-10-23T13:18:16.988Z,74.68
2022-10-23T13:20:59.379Z,57.17
2022-10-23T13:23:32.653Z,49.45
2022-10-23T13:26:02.407Z,45.22
2022-10-23T13:28:33.706Z,51.83
2022-10-23T13:31:24.509Z,44.33
2022-10-23T13:36:37.466Z,30.40
2022-10-23T13:39:16.172Z,27.55
2022-10-23T13:41:46.841Z,30.50
2022-10-23T13:44:17.749Z,26.98
2022-10-23T13:46:48.655Z,28.38
2022-10-23T13:49:17.736Z,27.92
2022-10-23T13:51:50.895Z,26.75
2022-10-23T13:54:21.838Z,27.88
2022-10-23T13:59:19.540Z,30.77
2022-10-23T14:01:50.764Z,27.92
2022-10-23T14:04:20.426Z,23.83
2022-10-23T14:06:49.144Z,25.23
2022-10-23T14:09:19.710Z,21.10
2022-10-23T14:11:49.081Z,19.58
2022-10-23T14:14:17.709Z,20.23
2022-10-23T14:16:46.515Z,20.13
2022-10-23T14:19:16.744Z,18.77
2022-10-23T14:21:45.463Z,20.20
2022-10-23T14:24:14.941Z,13.02
2022-10-23T14:26:43.730Z,13.45
2022-10-23T14:29:21.220Z,13.55
2022-10-23T14:31:52.091Z,13.57
2022-10-23T14:34:23.072Z,12.25
2022-10-23T14:39:36.928Z,14.75
2022-10-23T14:42:05.767Z,12.82
2022-10-23T14:44:34.663Z,10.90
2022-10-23T14:47:03.418Z,9.15
2022-10-23T14:49:35.818Z,9.38
2022-10-23T14:52:04.745Z,10.27
2022-10-23T14:54:35.318Z,13.32
2022-10-23T14:57:04.503Z,10.90
2022-10-23T14:59:33.184Z,9.07
2022-10-23T15:02:01.903Z,10.48
2022-10-23T15:04:30.583Z,11.10
2022-10-23T15:07:00.765Z,14.55
2022-10-23T15:09:29.487Z,10.93
2022-10-23T15:11:58.185Z,12.98
2022-10-23T15:14:26.869Z,12.63
2022-10-23T15:16:55.630Z,12.55
2022-10-23T15:19:24.349Z,11.95
2022-10-23T15:21:53.092Z,10.70
2022-10-23T15:24:23.427Z,9.82
2022-10-23T15:26:52.347Z,8.82
2022-10-23T15:29:21.723Z,7.40
2022-10-23T15:31:55.096Z,7.85
2022-10-23T15:34:25.988Z,9.73
2022-10-23T15:36:56.179Z,8.75
2022-10-23T15:39:28.027Z,6.47
2022-10-23T15:41:58.507Z,5.68
2022-10-23T15:44:29.645Z,5.00
2022-10-23T15:49:29.623Z,7.88
2022-10-23T15:51:58.934Z,5.00
2022-10-23T15:54:32.654Z,5.30
2022-10-23T15:57:02.387Z,7.95
2022-10-23T15:59:32.370Z,6.50
2022-10-23T16:02:01.110Z,7.95
2022-10-23T16:04:30.043Z,8.05
2022-10-23T16:06:58.875Z,7.22
2022-10-23T16:09:28.933Z,5.40
2022-10-23T16:11:57.551Z,8.17
2022-10-23T16:14:26.261Z,4.72
2022-10-23T16:16:54.990Z,7.10
2022-10-23T16:19:23.659Z,5.85
2022-10-23T16:21:52.405Z,6.45
2022-10-23T16:24:20.965Z,6.03
2022-10-23T16:27:01.112Z,8.75
2022-10-23T16:29:29.815Z,7.53
2022-10-23T16:32:00.032Z,6.15
2022-10-23T16:34:28.681Z,6.20
2022-10-23T16:36:57.241Z,6.35
2022-10-23T16:39:44.401Z,5.63
2022-10-23T16:42:38.059Z,5.68
2022-10-23T16:45:23.100Z,8.60
2022-10-23T16:47:51.761Z,8.40
2022-10-23T16:50:20.525Z,8.18
2022-10-23T16:52:52.016Z,9.25
2022-10-23T16:55:23.341Z,12.52
2022-10-23T16:57:53.561Z,8.40
2022-10-23T17:00:24.282Z,10.38
2022-10-23T17:02:52.885Z,10.23
2022-10-23T17:05:21.511Z,11.65
2022-10-23T17:07:50.531Z,9.18
2022-10-23T17:10:19.311Z,9.20
2022-10-23T17:12:47.855Z,10.57
2022-10-23T17:15:18.074Z,12.40
2022-10-23T17:17:47.075Z,9.43
2022-10-23T17:20:15.758Z,9.75
2022-10-23T17:22:44.211Z,14.38
2022-10-23T17:25:12.806Z,8.27
2022-10-23T17:27:42.929Z,8.50
2022-10-23T17:30:13.748Z,8.60
2022-10-23T17:32:44.401Z,9.40
2022-10-23T17:35:13.492Z,10.10
2022-10-23T17:37:42.054Z,8.32
2022-10-23T17:40:11.574Z,12.00
2022-10-23T17:42:40.336Z,10.23
2022-10-23T17:45:10.133Z,7.60
2022-10-23T17:47:40.331Z,12.10
2022-10-23T17:50:12.497Z,12.77
2022-10-23T17:52:42.480Z,10.95
2022-10-23T17:55:11.575Z,11.53
2022-10-23T17:57:41.653Z,8.90
2022-10-23T18:00:11.617Z,10.97
2022-10-23T18:02:43.133Z,7.65
2022-10-23T18:05:13.375Z,9.95
2022-10-23T18:07:42.270Z,9.75
2022-10-23T18:10:11.952Z,10.27
2022-10-23T18:12:40.950Z,7.63
2022-10-23T18:15:10.807Z,10.80
2022-10-23T18:17:39.543Z,9.68
2022-10-23T18:20:11.019Z,7.63
2022-10-23T18:22:41.196Z,10.10
2022-10-23T18:25:10.620Z,9.23
2022-10-23T18:27:41.657Z,11.27
2022-10-23T18:30:15.750Z,9.15
2022-10-23T18:32:44.943Z,8.85
2022-10-23T18:35:13.641Z,9.07
2022-10-23T18:37:44.814Z,8.07
2022-10-23T18:40:14.916Z,9.82
2022-10-23T18:42:43.931Z,9.23
2022-10-23T18:45:14.111Z,8.23
2022-10-23T18:47:42.979Z,8.10
2022-10-23T18:50:14.971Z,8.98
2022-10-23T18:52:45.133Z,11.32
2022-10-23T18:55:15.610Z,10.43
2022-10-23T18:57:44.618Z,10.07
2022-10-23T19:00:15.037Z,11.25
2022-10-23T19:02:43.898Z,10.60
2022-10-23T19:05:12.567Z,12.05
2022-10-23T19:07:45.422Z,8.35
2022-10-23T19:10:19.607Z,9.00
2022-10-23T19:12:48.571Z,8.80
2022-10-23T19:15:17.481Z,7.00
2022-10-23T19:17:52.751Z,8.63
2022-10-23T19:20:23.145Z,8.57
2022-10-23T19:22:54.434Z,7.03
2022-10-23T19:25:28.822Z,8.70
2022-10-23T19:27:58.259Z,7.40
2022-10-23T19:30:27.297Z,11.00
2022-10-23T19:32:56.298Z,9.35
2022-10-23T19:35:25.075Z,8.27
2022-10-23T19:37:53.799Z,9.82
2022-10-23T19:40:24.578Z,8.48
2022-10-23T19:42:54.444Z,8.30
2022-10-23T19:45:23.395Z,9.93
2022-10-23T19:47:53.476Z,9.02
2022-10-23T19:50:22.761Z,7.68
2022-10-23T19:52:51.329Z,7.30
2022-10-23T19:55:20.045Z,10.10
2022-10-23T19:57:50.001Z,9.70
2022-10-23T20:00:19.102Z,9.57
2022-10-23T20:02:50.223Z,8.38
2022-10-23T20:05:21.974Z,9.77
2022-10-23T20:07:51.560Z,6.80
2022-10-23T20:10:20.340Z,12.80
2022-10-23T20:12:56.817Z,8.57
2022-10-23T20:15:31.441Z,8.65
2022-10-23T20:18:00.032Z,11.60
2022-10-23T20:20:28.802Z,7.47
2022-10-23T20:22:57.729Z,9.55
2022-10-23T20:25:28.006Z,8.95
2022-10-23T20:27:58.645Z,12.05
2022-10-23T20:30:27.542Z,10.85
2022-10-23T20:32:56.270Z,8.15
2022-10-23T20:35:25.351Z,7.85
2022-10-23T20:37:53.911Z,11.80
2022-10-23T20:40:22.964Z,8.43
2022-10-23T20:42:51.525Z,10.75
2022-10-23T20:45:21.762Z,9.65
2022-10-23T20:47:50.387Z,6.93
2022-10-23T20:50:19.497Z,8.27
2022-10-23T20:52:48.261Z,9.32
2022-10-23T20:55:17.243Z,7.30
2022-10-23T20:57:46.208Z,7.10
2022-10-23T21:00:15.623Z,8.90
2022-10-23T21:02:48.462Z,10.00
2022-10-23T21:05:20.066Z,6.85
2022-10-23T21:07:48.828Z,8.13
2022-10-23T21:10:17.683Z,10.52
2022-10-23T21:12:46.591Z,6.63
2022-10-23T21:15:15.387Z,10.60
2022-10-23T21:17:46.475Z,8.88
2022-10-23T21:20:15.186Z,8.05
2022-10-23T21:22:44.110Z,10.35
2022-10-23T21:25:13.284Z,6.78
2022-10-23T21:27:42.165Z,7.90
2022-10-23T21:30:12.641Z,9.00
2022-10-23T21:32:41.587Z,7.63
2022-10-23T21:35:12.807Z,7.35
2022-10-23T21:37:41.743Z,9.95
2022-10-23T21:40:12.080Z,8.73
2022-10-23T21:42:40.900Z,9.45
2022-10-23T21:45:10.718Z,9.65
2022-10-23T21:47:39.702Z,9.48
2022-10-23T21:50:08.986Z,6.15
2022-10-23T21:52:39.228Z,8.23
2022-10-23T21:55:08.624Z,10.37
2022-10-23T21:57:37.403Z,11.65
2022-10-23T22:00:07.893Z,6.95
2022-10-23T22:02:41.464Z,8.38
2022-10-23T22:05:11.762Z,8.73
2022-10-23T22:07:42.787Z,8.07
2022-10-23T22:10:11.979Z,9.80
2022-10-23T22:12:40.581Z,7.30
2022-10-23T22:15:10.235Z,9.13
2022-10-23T22:17:38.932Z,7.97
2022-10-23T22:20:08.880Z,6.32
2022-10-23T22:22:37.517Z,9.00
2022-10-23T22:25:08.859Z,9.77
2022-10-23T22:27:38.844Z,8.20
2022-10-23T22:30:08.299Z,8.13
2022-10-23T22:32:36.927Z,5.38
2022-10-23T22:35:06.533Z,6.40
2022-10-23T22:37:35.524Z,7.07
2022-10-23T22:40:04.351Z,7.32
2022-10-23T22:42:34.386Z,7.65
2022-10-23T22:45:03.110Z,9.17
2022-10-23T22:47:31.645Z,9.80
2022-10-23T22:50:00.270Z,9.27
2022-10-23T22:52:28.871Z,8.30
2022-10-23T22:54:57.505Z,9.07
2022-10-23T22:59:57.035Z,9.27
2022-10-23T23:02:25.761Z,7.40
2022-10-23T23:04:54.316Z,9.02
2022-10-23T23:07:22.991Z,7.25
2022-10-23T23:09:51.756Z,7.85
2022-10-23T23:12:20.386Z,7.15
2022-10-23T23:14:49.131Z,6.22
2022-10-23T23:17:19.228Z,10.30
2022-10-23T23:19:47.878Z,6.90
2022-10-23T23:22:16.538Z,8.18
2022-10-23T23:24:45.393Z,11.18
2022-10-23T23:27:13.942Z,11.35
2022-10-23T23:29:42.574Z,10.05
2022-10-23T23:32:12.062Z,7.22
2022-10-23T23:34:42.369Z,7.05
2022-10-23T23:37:11.116Z,11.32
2022-10-23T23:39:39.796Z,6.90
2022-10-23T23:42:08.607Z,10.50
2022-10-23T23:44:45.770Z,9.25
2022-10-23T23:47:24.691Z,11.52
2022-10-23T23:49:54.828Z,9.10
2022-10-23T23:52:23.581Z,7.68
2022-10-23T23:54:52.145Z,9.30
2022-10-23T23:57:20.836Z,10.60
2022-10-23T23:59:49.574Z,12.55
